Aérodrome :
LOGIN :

S'inscrire | Disclaimer

   EN    FR    IT 

 










Légende :    VFR   VFR Marginal   IFR   IFR Intensif   IFR Très Intensif
Visi : 
Plafond : 
>= 8 km
>= 3000ft
5 à 8 km
1000 à 3000 ft
1500m à 5 km
500 à 1000 ft
800 à 1500m
200 à 500 ft
< 800m
< 200 ft
Symboles :   Orages  Brouillard  Fortes neiges  Fortes précipitations  Vent > 20 kt
SIGMETs :   Divers  Orages  Givrage  Turbulence  Onde Orograph.  Cendres Volcan.






- Altitude de l'aérodrome : 870 ft
- Code IATA : ETZ


LFJL - Metz Nancy Lorraine

DERNIER METAR :
  • 050630Z AUTO 19008KT 9999 FEW009 OVC021 03/02 Q1002 TEMPO BKN013

METARs EXPIRÉS :
  • 050600Z AUTO 20008KT 9999 BKN012 OVC020 03/02 Q1002 TEMPO BKN008
  • 050530Z AUTO 22010KT 9999 BKN017/// OVC025/// ///TCU 03/02 Q1002 TEMPO BKN008
  • 050500Z AUTO 21009KT 9999 BKN016/// OVC021/// ///TCU 03/02 Q1002 TEMPO BKN008
  • 050430Z AUTO 23009KT 9999 -DZ BKN015 OVC020 03/02 Q1002 TEMPO BKN008

TAF TAF LFJL
Valide du 05 à 06h jusqu'au 06 à 06h UTC


050500Z 0506/0606 21010KT 9999 BKN020
TEMPO 0506/0524 -SHRA BKN013
PROB40
TEMPO 0512/0518 4000 SHRA BKN008 FEW013TCU
FM060000 VRB03KT 9999 OVC013
TEMPO 0600/0606 BKN006
PROB30
TEMPO 0603/0606 4000 -SN OVC003



MET'MAP, la Météo Aéronautique d'un coup d'oeil ! - Copyright ORBIFLY Décembre 2007 - Disclaimer

ORBIFLY MET'MAP TEAM :

Programmation & Développement : Alexandra Zaïnal
Sur une idée originale de : Baudouin d'Aumeries
Assistance à la programmation : Marc-Olivier Méhu
Soutien technique & logistique : Manuel Goepfert

Contact : metmap@orbifly.com




SOURCES & CREDITS :

   NOAA